sensor_id;sensor_type;location;lat;lon;timestamp;P1;P2;P0
45871;PMS5003;32333;55.844;-3.210;2022-09-03T00:00:18;0;0;
45871;PMS5003;32333;55.844;-3.210;2022-09-03T00:02:47;0;0;
45871;PMS5003;32333;55.844;-3.210;2022-09-03T00:05:25;0;0;
45871;PMS5003;32333;55.844;-3.210;2022-09-03T00:08:04;0;0;
45871;PMS5003;32333;55.844;-3.210;2022-09-03T00:10:40;0;0;
45871;PMS5003;32333;55.844;-3.210;2022-09-03T00:14:36;0;0;
45871;PMS5003;32333;55.844;-3.210;2022-09-03T00:17:08;0;0;
45871;PMS5003;32333;55.844;-3.210;2022-09-03T00:19:42;0;0;
45871;PMS5003;32333;55.844;-3.210;2022-09-03T00:22:18;0;0;
45871;PMS5003;32333;55.844;-3.210;2022-09-03T00:24:51;0;0;
45871;PMS5003;32333;55.844;-3.210;2022-09-03T00:27:19;0;0;
45871;PMS5003;32333;55.844;-3.210;2022-09-03T00:29:51;0;0;
45871;PMS5003;32333;55.844;-3.210;2022-09-03T00:32:25;0;0;
45871;PMS5003;32333;55.844;-3.210;2022-09-03T00:35:01;0;0;
45871;PMS5003;32333;55.844;-3.210;2022-09-03T00:37:33;0;0;
45871;PMS5003;32333;55.844;-3.210;2022-09-03T00:40:04;0;0;
45871;PMS5003;32333;55.844;-3.210;2022-09-03T00:44:43;1;1;
45871;PMS5003;32333;55.844;-3.210;2022-09-03T00:47:22;0;0;
45871;PMS5003;32333;55.844;-3.210;2022-09-03T00:49:59;0;0;
45871;PMS5003;32333;55.844;-3.210;2022-09-03T00:52:37;0;0;
45871;PMS5003;32333;55.844;-3.210;2022-09-03T00:55:15;18;18;
45871;PMS5003;32333;55.844;-3.210;2022-09-03T00:57:55;19;19;
45871;PMS5003;32333;55.844;-3.210;2022-09-03T01:00:33;16;15;
45871;PMS5003;32333;55.844;-3.210;2022-09-03T01:03:04;17;16;
45871;PMS5003;32333;55.844;-3.210;2022-09-03T01:05:39;15;14;
45871;PMS5003;32333;55.844;-3.210;2022-09-03T01:08:22;17;16;
45871;PMS5003;32333;55.844;-3.210;2022-09-03T01:11:04;16;15;
45871;PMS5003;32333;55.844;-3.210;2022-09-03T01:14:37;20;16;
45871;PMS5003;32333;55.844;-3.210;2022-09-03T01:17:20;18;18;
45871;PMS5003;32333;55.844;-3.210;2022-09-03T01:19:59;16;16;
45871;PMS5003;32333;55.844;-3.210;2022-09-03T01:22:46;15;15;
45871;PMS5003;32333;55.844;-3.210;2022-09-03T01:25:31;19;18;
45871;PMS5003;32333;55.844;-3.210;2022-09-03T01:28:15;16;16;
45871;PMS5003;32333;55.844;-3.210;2022-09-03T01:30:53;19;17;
45871;PMS5003;32333;55.844;-3.210;2022-09-03T01:33:26;26;23;
45871;PMS5003;32333;55.844;-3.210;2022-09-03T01:36:02;19;19;
45871;PMS5003;32333;55.844;-3.210;2022-09-03T01:38:40;25;21;
45871;PMS5003;32333;55.844;-3.210;2022-09-03T01:41:13;20;19;
45871;PMS5003;32333;55.844;-3.210;2022-09-03T01:44:38;17;16;
45871;PMS5003;32333;55.844;-3.210;2022-09-03T01:47:21;26;25;
45871;PMS5003;32333;55.844;-3.210;2022-09-03T01:49:57;19;17;
45871;PMS5003;32333;55.844;-3.210;2022-09-03T01:52:35;19;16;
45871;PMS5003;32333;55.844;-3.210;2022-09-03T01:55:15;18;16;
45871;PMS5003;32333;55.844;-3.210;2022-09-03T01:57:55;18;18;
45871;PMS5003;32333;55.844;-3.210;2022-09-03T02:00:27;19;18;
45871;PMS5003;32333;55.844;-3.210;2022-09-03T02:03:00;18;16;
45871;PMS5003;32333;55.844;-3.210;2022-09-03T02:05:30;18;18;
45871;PMS5003;32333;55.844;-3.210;2022-09-03T02:07:59;17;15;
45871;PMS5003;32333;55.844;-3.210;2022-09-03T02:10:30;16;14;
45871;PMS5003;32333;55.844;-3.210;2022-09-03T02:14:34;0;0;
45871;PMS5003;32333;55.844;-3.210;2022-09-03T02:17:02;0;0;
45871;PMS5003;32333;55.844;-3.210;2022-09-03T02:19:33;0;0;
45871;PMS5003;32333;55.844;-3.210;2022-09-03T02:22:02;0;0;
45871;PMS5003;32333;55.844;-3.210;2022-09-03T02:24:31;22;20;
45871;PMS5003;32333;55.844;-3.210;2022-09-03T02:26:59;29;26;
45871;PMS5003;32333;55.844;-3.210;2022-09-03T02:29:27;24;24;
45871;PMS5003;32333;55.844;-3.210;2022-09-03T02:31:55;23;22;
45871;PMS5003;32333;55.844;-3.210;2022-09-03T02:34:24;22;22;
45871;PMS5003;32333;55.844;-3.210;2022-09-03T02:36:51;27;22;
45871;PMS5003;32333;55.844;-3.210;2022-09-03T02:39:19;26;23;
45871;PMS5003;32333;55.844;-3.210;2022-09-03T02:41:49;28;26;
45871;PMS5003;32333;55.844;-3.210;2022-09-03T02:44:34;28;24;
45871;PMS5003;32333;55.844;-3.210;2022-09-03T02:47:05;25;24;
45871;PMS5003;32333;55.844;-3.210;2022-09-03T02:49:34;30;29;
45871;PMS5003;32333;55.844;-3.210;2022-09-03T02:52:02;25;23;
45871;PMS5003;32333;55.844;-3.210;2022-09-03T02:54:32;29;25;
45871;PMS5003;32333;55.844;-3.210;2022-09-03T02:57:00;28;25;
45871;PMS5003;32333;55.844;-3.210;2022-09-03T02:59:28;26;22;
45871;PMS5003;32333;55.844;-3.210;2022-09-03T03:01:55;35;31;
45871;PMS5003;32333;55.844;-3.210;2022-09-03T03:04:23;34;31;
45871;PMS5003;32333;55.844;-3.210;2022-09-03T03:06:51;28;26;
45871;PMS5003;32333;55.844;-3.210;2022-09-03T03:09:18;29;27;
45871;PMS5003;32333;55.844;-3.210;2022-09-03T03:11:46;31;24;
45871;PMS5003;32333;55.844;-3.210;2022-09-03T03:14:33;26;23;
45871;PMS5003;32333;55.844;-3.210;2022-09-03T03:17:01;21;21;
45871;PMS5003;32333;55.844;-3.210;2022-09-03T03:19:29;27;23;
45871;PMS5003;32333;55.844;-3.210;2022-09-03T03:21:56;33;29;
45871;PMS5003;32333;55.844;-3.210;2022-09-03T03:24:24;20;20;
45871;PMS5003;32333;55.844;-3.210;2022-09-03T03:26:54;23;23;
45871;PMS5003;32333;55.844;-3.210;2022-09-03T03:29:22;26;23;
45871;PMS5003;32333;55.844;-3.210;2022-09-03T03:31:50;32;22;
45871;PMS5003;32333;55.844;-3.210;2022-09-03T03:34:18;30;22;
45871;PMS5003;32333;55.844;-3.210;2022-09-03T03:36:46;22;20;
45871;PMS5003;32333;55.844;-3.210;2022-09-03T03:39:14;30;23;
45871;PMS5003;32333;55.844;-3.210;2022-09-03T03:41:41;23;22;
45871;PMS5003;32333;55.844;-3.210;2022-09-03T03:44:34;30;27;
45871;PMS5003;32333;55.844;-3.210;2022-09-03T03:47:03;22;22;
45871;PMS5003;32333;55.844;-3.210;2022-09-03T03:49:30;26;25;
45871;PMS5003;32333;55.844;-3.210;2022-09-03T03:51:58;28;23;
45871;PMS5003;32333;55.844;-3.210;2022-09-03T03:54:26;27;24;
45871;PMS5003;32333;55.844;-3.210;2022-09-03T03:56:56;29;25;
45871;PMS5003;32333;55.844;-3.210;2022-09-03T03:59:24;28;28;
45871;PMS5003;32333;55.844;-3.210;2022-09-03T04:01:53;36;28;
45871;PMS5003;32333;55.844;-3.210;2022-09-03T04:04:21;26;26;
45871;PMS5003;32333;55.844;-3.210;2022-09-03T04:06:48;25;24;
45871;PMS5003;32333;55.844;-3.210;2022-09-03T04:09:16;28;25;
45871;PMS5003;32333;55.844;-3.210;2022-09-03T04:11:44;32;30;
45871;PMS5003;32333;55.844;-3.210;2022-09-03T04:14:35;0;0;
45871;PMS5003;32333;55.844;-3.210;2022-09-03T04:17:03;0;0;
45871;PMS5003;32333;55.844;-3.210;2022-09-03T04:19:31;0;0;
45871;PMS5003;32333;55.844;-3.210;2022-09-03T04:21:59;9;6;
45871;PMS5003;32333;55.844;-3.210;2022-09-03T04:24:28;4;3;
45871;PMS5003;32333;55.844;-3.210;2022-09-03T04:26:59;0;0;
45871;PMS5003;32333;55.844;-3.210;2022-09-03T04:29:27;0;0;
45871;PMS5003;32333;55.844;-3.210;2022-09-03T04:31:56;0;0;
45871;PMS5003;32333;55.844;-3.210;2022-09-03T04:34:23;0;0;
45871;PMS5003;32333;55.844;-3.210;2022-09-03T04:36:51;0;0;
45871;PMS5003;32333;55.844;-3.210;2022-09-03T04:39:20;1;1;
45871;PMS5003;32333;55.844;-3.210;2022-09-03T04:41:48;0;0;
45871;PMS5003;32333;55.844;-3.210;2022-09-03T04:44:35;1;1;
45871;PMS5003;32333;55.844;-3.210;2022-09-03T04:47:03;3;1;
45871;PMS5003;32333;55.844;-3.210;2022-09-03T04:49:31;1;1;
45871;PMS5003;32333;55.844;-3.210;2022-09-03T04:51:59;0;0;
45871;PMS5003;32333;55.844;-3.210;2022-09-03T04:54:27;0;0;
45871;PMS5003;32333;55.844;-3.210;2022-09-03T04:56:55;1;1;
45871;PMS5003;32333;55.844;-3.210;2022-09-03T04:59:22;0;0;
45871;PMS5003;32333;55.844;-3.210;2022-09-03T05:01:50;4;3;
45871;PMS5003;32333;55.844;-3.210;2022-09-03T05:04:17;0;0;
45871;PMS5003;32333;55.844;-3.210;2022-09-03T05:06:46;0;0;
45871;PMS5003;32333;55.844;-3.210;2022-09-03T05:09:15;3;3;
45871;PMS5003;32333;55.844;-3.210;2022-09-03T05:11:42;0;0;
45871;PMS5003;32333;55.844;-3.210;2022-09-03T05:14:36;3;0;
45871;PMS5003;32333;55.844;-3.210;2022-09-03T05:17:03;0;0;
45871;PMS5003;32333;55.844;-3.210;2022-09-03T05:19:31;1;1;
45871;PMS5003;32333;55.844;-3.210;2022-09-03T05:21:59;1;1;
45871;PMS5003;32333;55.844;-3.210;2022-09-03T05:24:28;0;0;
45871;PMS5003;32333;55.844;-3.210;2022-09-03T05:26:57;1;1;
45871;PMS5003;32333;55.844;-3.210;2022-09-03T05:29:25;3;3;
45871;PMS5003;32333;55.844;-3.210;2022-09-03T05:31:53;1;1;
45871;PMS5003;32333;55.844;-3.210;2022-09-03T05:34:20;0;0;
45871;PMS5003;32333;55.844;-3.210;2022-09-03T05:36:47;0;0;
45871;PMS5003;32333;55.844;-3.210;2022-09-03T05:39:15;0;0;
45871;PMS5003;32333;55.844;-3.210;2022-09-03T05:41:42;1;1;
45871;PMS5003;32333;55.844;-3.210;2022-09-03T05:44:34;0;0;
45871;PMS5003;32333;55.844;-3.210;2022-09-03T05:47:02;1;1;
45871;PMS5003;32333;55.844;-3.210;2022-09-03T05:49:29;3;3;
45871;PMS5003;32333;55.844;-3.210;2022-09-03T05:51:58;0;0;
45871;PMS5003;32333;55.844;-3.210;2022-09-03T05:54:25;4;3;
45871;PMS5003;32333;55.844;-3.210;2022-09-03T05:56:53;1;1;
45871;PMS5003;32333;55.844;-3.210;2022-09-03T05:59:21;1;1;
45871;PMS5003;32333;55.844;-3.210;2022-09-03T06:01:49;3;3;
45871;PMS5003;32333;55.844;-3.210;2022-09-03T06:04:18;1;1;
45871;PMS5003;32333;55.844;-3.210;2022-09-03T06:06:46;1;1;
45871;PMS5003;32333;55.844;-3.210;2022-09-03T06:09:14;3;1;
45871;PMS5003;32333;55.844;-3.210;2022-09-03T06:11:45;1;1;
45871;PMS5003;32333;55.844;-3.210;2022-09-03T06:14:34;1;1;
45871;PMS5003;32333;55.844;-3.210;2022-09-03T06:17:02;0;0;
45871;PMS5003;32333;55.844;-3.210;2022-09-03T06:19:30;1;1;
45871;PMS5003;32333;55.844;-3.210;2022-09-03T06:21:58;0;0;
45871;PMS5003;32333;55.844;-3.210;2022-09-03T06:24:26;0;0;
45871;PMS5003;32333;55.844;-3.210;2022-09-03T06:26:54;0;0;
45871;PMS5003;32333;55.844;-3.210;2022-09-03T06:29:22;0;0;
45871;PMS5003;32333;55.844;-3.210;2022-09-03T06:31:52;0;0;
45871;PMS5003;32333;55.844;-3.210;2022-09-03T06:34:21;0;0;
45871;PMS5003;32333;55.844;-3.210;2022-09-03T06:36:49;0;0;
45871;PMS5003;32333;55.844;-3.210;2022-09-03T06:39:16;0;0;
45871;PMS5003;32333;55.844;-3.210;2022-09-03T06:41:44;0;0;
45871;PMS5003;32333;55.844;-3.210;2022-09-03T06:44:34;1;1;
45871;PMS5003;32333;55.844;-3.210;2022-09-03T06:47:02;0;0;
45871;PMS5003;32333;55.844;-3.210;2022-09-03T06:49:30;0;0;
45871;PMS5003;32333;55.844;-3.210;2022-09-03T06:51:58;0;0;
45871;PMS5003;32333;55.844;-3.210;2022-09-03T06:54:26;1;1;
45871;PMS5003;32333;55.844;-3.210;2022-09-03T06:56:53;0;0;
45871;PMS5003;32333;55.844;-3.210;2022-09-03T06:59:21;3;1;
45871;PMS5003;32333;55.844;-3.210;2022-09-03T07:01:49;0;0;
45871;PMS5003;32333;55.844;-3.210;2022-09-03T07:04:17;1;1;
45871;PMS5003;32333;55.844;-3.210;2022-09-03T07:06:44;1;1;
45871;PMS5003;32333;55.844;-3.210;2022-09-03T07:09:12;0;0;
45871;PMS5003;32333;55.844;-3.210;2022-09-03T07:11:41;1;1;
45871;PMS5003;32333;55.844;-3.210;2022-09-03T07:14:34;0;0;
45871;PMS5003;32333;55.844;-3.210;2022-09-03T07:17:02;0;0;
45871;PMS5003;32333;55.844;-3.210;2022-09-03T07:19:30;1;1;
45871;PMS5003;32333;55.844;-3.210;2022-09-03T07:21:58;1;1;
45871;PMS5003;32333;55.844;-3.210;2022-09-03T07:24:26;0;0;
45871;PMS5003;32333;55.844;-3.210;2022-09-03T07:26:54;1;1;
45871;PMS5003;32333;55.844;-3.210;2022-09-03T07:29:21;6;1;
45871;PMS5003;32333;55.844;-3.210;2022-09-03T07:31:49;1;1;
45871;PMS5003;32333;55.844;-3.210;2022-09-03T07:34:16;3;3;
45871;PMS5003;32333;55.844;-3.210;2022-09-03T07:36:45;1;1;
45871;PMS5003;32333;55.844;-3.210;2022-09-03T07:39:13;1;1;
45871;PMS5003;32333;55.844;-3.210;2022-09-03T07:41:43;0;0;
45871;PMS5003;32333;55.844;-3.210;2022-09-03T07:44:35;3;3;
45871;PMS5003;32333;55.844;-3.210;2022-09-03T07:47:02;1;1;
45871;PMS5003;32333;55.844;-3.210;2022-09-03T07:49:30;0;0;
45871;PMS5003;32333;55.844;-3.210;2022-09-03T07:51:58;1;1;
45871;PMS5003;32333;55.844;-3.210;2022-09-03T07:54:25;1;1;
45871;PMS5003;32333;55.844;-3.210;2022-09-03T07:56:52;1;1;
45871;PMS5003;32333;55.844;-3.210;2022-09-03T07:59:20;0;0;
45871;PMS5003;32333;55.844;-3.210;2022-09-03T08:01:47;3;3;
45871;PMS5003;32333;55.844;-3.210;2022-09-03T08:04:15;0;0;
45871;PMS5003;32333;55.844;-3.210;2022-09-03T08:06:44;0;0;
45871;PMS5003;32333;55.844;-3.210;2022-09-03T08:09:11;0;0;
45871;PMS5003;32333;55.844;-3.210;2022-09-03T08:11:41;3;3;
45871;PMS5003;32333;55.844;-3.210;2022-09-03T08:14:35;3;1;
45871;PMS5003;32333;55.844;-3.210;2022-09-03T08:17:04;0;0;
45871;PMS5003;32333;55.844;-3.210;2022-09-03T08:19:31;4;3;
45871;PMS5003;32333;55.844;-3.210;2022-09-03T08:21:59;0;0;
45871;PMS5003;32333;55.844;-3.210;2022-09-03T08:24:26;1;1;
45871;PMS5003;32333;55.844;-3.210;2022-09-03T08:26:53;0;0;
45871;PMS5003;32333;55.844;-3.210;2022-09-03T08:29:21;1;1;
45871;PMS5003;32333;55.844;-3.210;2022-09-03T08:31:49;1;1;
45871;PMS5003;32333;55.844;-3.210;2022-09-03T08:34:17;0;0;
45871;PMS5003;32333;55.844;-3.210;2022-09-03T08:36:46;3;3;
45871;PMS5003;32333;55.844;-3.210;2022-09-03T08:39:14;1;0;
45871;PMS5003;32333;55.844;-3.210;2022-09-03T08:41:50;0;0;
45871;PMS5003;32333;55.844;-3.210;2022-09-03T08:44:36;0;0;
45871;PMS5003;32333;55.844;-3.210;2022-09-03T08:47:10;0;0;
45871;PMS5003;32333;55.844;-3.210;2022-09-03T08:49:45;0;0;
45871;PMS5003;32333;55.844;-3.210;2022-09-03T08:52:20;1;1;
45871;PMS5003;32333;55.844;-3.210;2022-09-03T08:54:57;1;1;
45871;PMS5003;32333;55.844;-3.210;2022-09-03T08:57:46;0;0;
45871;PMS5003;32333;55.844;-3.210;2022-09-03T09:00:15;4;3;
45871;PMS5003;32333;55.844;-3.210;2022-09-03T09:02:47;1;1;
45871;PMS5003;32333;55.844;-3.210;2022-09-03T09:05:27;0;0;
45871;PMS5003;32333;55.844;-3.210;2022-09-03T09:08:13;1;1;
45871;PMS5003;32333;55.844;-3.210;2022-09-03T09:10:52;0;0;
45871;PMS5003;32333;55.844;-3.210;2022-09-03T09:14:37;6;6;
45871;PMS5003;32333;55.844;-3.210;2022-09-03T09:17:15;4;4;
45871;PMS5003;32333;55.844;-3.210;2022-09-03T09:20:00;3;3;
45871;PMS5003;32333;55.844;-3.210;2022-09-03T09:22:33;3;3;
45871;PMS5003;32333;55.844;-3.210;2022-09-03T09:25:06;4;3;
45871;PMS5003;32333;55.844;-3.210;2022-09-03T09:27:38;3;0;
45871;PMS5003;32333;55.844;-3.210;2022-09-03T09:30:13;3;3;
45871;PMS5003;32333;55.844;-3.210;2022-09-03T09:32:42;3;3;
45871;PMS5003;32333;55.844;-3.210;2022-09-03T09:35:09;7;7;
45871;PMS5003;32333;55.844;-3.210;2022-09-03T09:37:45;4;3;
45871;PMS5003;32333;55.844;-3.210;2022-09-03T09:40:21;3;3;
45871;PMS5003;32333;55.844;-3.210;2022-09-03T09:44:35;6;4;
45871;PMS5003;32333;55.844;-3.210;2022-09-03T09:47:05;1;1;
45871;PMS5003;32333;55.844;-3.210;2022-09-03T09:49:36;4;3;
45871;PMS5003;32333;55.844;-3.210;2022-09-03T09:52:15;4;4;
45871;PMS5003;32333;55.844;-3.210;2022-09-03T09:54:43;3;3;
45871;PMS5003;32333;55.844;-3.210;2022-09-03T09:57:13;1;1;
45871;PMS5003;32333;55.844;-3.210;2022-09-03T09:59:42;0;0;
45871;PMS5003;32333;55.844;-3.210;2022-09-03T10:02:11;1;1;
45871;PMS5003;32333;55.844;-3.210;2022-09-03T10:04:40;0;0;
45871;PMS5003;32333;55.844;-3.210;2022-09-03T10:07:16;0;0;
45871;PMS5003;32333;55.844;-3.210;2022-09-03T10:09:56;0;0;
45871;PMS5003;32333;55.844;-3.210;2022-09-03T10:14:36;1;1;
45871;PMS5003;32333;55.844;-3.210;2022-09-03T10:17:08;1;1;
45871;PMS5003;32333;55.844;-3.210;2022-09-03T10:19:47;3;1;
45871;PMS5003;32333;55.844;-3.210;2022-09-03T10:22:22;0;0;
45871;PMS5003;32333;55.844;-3.210;2022-09-03T10:24:53;4;4;
45871;PMS5003;32333;55.844;-3.210;2022-09-03T10:27:27;1;1;
45871;PMS5003;32333;55.844;-3.210;2022-09-03T10:29:54;0;0;
45871;PMS5003;32333;55.844;-3.210;2022-09-03T10:32:24;7;6;
45871;PMS5003;32333;55.844;-3.210;2022-09-03T10:35:02;0;0;
45871;PMS5003;32333;55.844;-3.210;2022-09-03T10:37:36;1;1;
45871;PMS5003;32333;55.844;-3.210;2022-09-03T10:40:26;1;1;
45871;PMS5003;32333;55.844;-3.210;2022-09-03T10:44:39;6;4;
45871;PMS5003;32333;55.844;-3.210;2022-09-03T10:47:20;3;3;
45871;PMS5003;32333;55.844;-3.210;2022-09-03T10:49:59;3;3;
45871;PMS5003;32333;55.844;-3.210;2022-09-03T10:52:37;1;1;
45871;PMS5003;32333;55.844;-3.210;2022-09-03T10:55:13;3;3;
45871;PMS5003;32333;55.844;-3.210;2022-09-03T10:57:48;4;4;
45871;PMS5003;32333;55.844;-3.210;2022-09-03T11:00:25;3;3;
45871;PMS5003;32333;55.844;-3.210;2022-09-03T11:03:32;0;0;
45871;PMS5003;32333;55.844;-3.210;2022-09-03T11:06:10;0;0;
45871;PMS5003;32333;55.844;-3.210;2022-09-03T11:08:43;1;1;
45871;PMS5003;32333;55.844;-3.210;2022-09-03T11:11:18;3;3;
45871;PMS5003;32333;55.844;-3.210;2022-09-03T11:14:36;6;6;
45871;PMS5003;32333;55.844;-3.210;2022-09-03T11:17:08;4;3;
45871;PMS5003;32333;55.844;-3.210;2022-09-03T11:19:44;6;6;
45871;PMS5003;32333;55.844;-3.210;2022-09-03T11:22:13;10;10;
45871;PMS5003;32333;55.844;-3.210;2022-09-03T11:24:42;6;4;
45871;PMS5003;32333;55.844;-3.210;2022-09-03T11:27:18;7;7;
45871;PMS5003;32333;55.844;-3.210;2022-09-03T11:29:57;4;4;
45871;PMS5003;32333;55.844;-3.210;2022-09-03T11:32:30;4;4;
45871;PMS5003;32333;55.844;-3.210;2022-09-03T11:35:13;4;3;
45871;PMS5003;32333;55.844;-3.210;2022-09-03T11:37:47;0;0;
45871;PMS5003;32333;55.844;-3.210;2022-09-03T11:40:19;0;0;
45871;PMS5003;32333;55.844;-3.210;2022-09-03T11:44:35;4;4;
45871;PMS5003;32333;55.844;-3.210;2022-09-03T11:47:12;3;3;
45871;PMS5003;32333;55.844;-3.210;2022-09-03T11:49:44;7;6;
45871;PMS5003;32333;55.844;-3.210;2022-09-03T11:52:13;0;0;
45871;PMS5003;32333;55.844;-3.210;2022-09-03T11:54:54;3;3;
45871;PMS5003;32333;55.844;-3.210;2022-09-03T11:57:24;1;1;
45871;PMS5003;32333;55.844;-3.210;2022-09-03T12:00:06;1;1;
45871;PMS5003;32333;55.844;-3.210;2022-09-03T12:02:36;4;3;
45871;PMS5003;32333;55.844;-3.210;2022-09-03T12:05:14;4;4;
45871;PMS5003;32333;55.844;-3.210;2022-09-03T12:07:52;4;3;
45871;PMS5003;32333;55.844;-3.210;2022-09-03T12:10:33;6;4;
45871;PMS5003;32333;55.844;-3.210;2022-09-03T12:14:35;7;6;
45871;PMS5003;32333;55.844;-3.210;2022-09-03T12:17:15;3;3;
45871;PMS5003;32333;55.844;-3.210;2022-09-03T12:19:53;3;3;
45871;PMS5003;32333;55.844;-3.210;2022-09-03T12:22:22;1;1;
45871;PMS5003;32333;55.844;-3.210;2022-09-03T12:24:51;3;3;
45871;PMS5003;32333;55.844;-3.210;2022-09-03T12:27:20;3;1;
45871;PMS5003;32333;55.844;-3.210;2022-09-03T12:29:51;1;1;
45871;PMS5003;32333;55.844;-3.210;2022-09-03T12:32:21;1;1;
45871;PMS5003;32333;55.844;-3.210;2022-09-03T12:34:49;6;6;
45871;PMS5003;32333;55.844;-3.210;2022-09-03T12:37:18;1;1;
45871;PMS5003;32333;55.844;-3.210;2022-09-03T12:39:51;1;1;
45871;PMS5003;32333;55.844;-3.210;2022-09-03T12:44:37;4;1;
45871;PMS5003;32333;55.844;-3.210;2022-09-03T12:47:10;13;10;
45871;PMS5003;32333;55.844;-3.210;2022-09-03T12:49:40;3;3;
45871;PMS5003;32333;55.844;-3.210;2022-09-03T12:52:10;4;4;
45871;PMS5003;32333;55.844;-3.210;2022-09-03T12:54:46;4;4;
45871;PMS5003;32333;55.844;-3.210;2022-09-03T12:57:20;1;1;
45871;PMS5003;32333;55.844;-3.210;2022-09-03T12:59:53;6;3;
45871;PMS5003;32333;55.844;-3.210;2022-09-03T13:02:26;0;0;
45871;PMS5003;32333;55.844;-3.210;2022-09-03T13:05:00;1;1;
45871;PMS5003;32333;55.844;-3.210;2022-09-03T13:07:29;7;6;
45871;PMS5003;32333;55.844;-3.210;2022-09-03T13:10:02;3;3;
45871;PMS5003;32333;55.844;-3.210;2022-09-03T13:14:42;3;3;
45871;PMS5003;32333;55.844;-3.210;2022-09-03T13:17:18;1;1;
45871;PMS5003;32333;55.844;-3.210;2022-09-03T13:20:11;1;1;
45871;PMS5003;32333;55.844;-3.210;2022-09-03T13:22:55;3;3;
45871;PMS5003;32333;55.844;-3.210;2022-09-03T13:25:36;6;4;
45871;PMS5003;32333;55.844;-3.210;2022-09-03T13:28:15;4;4;
45871;PMS5003;32333;55.844;-3.210;2022-09-03T13:30:54;1;1;
45871;PMS5003;32333;55.844;-3.210;2022-09-03T13:33:27;0;0;
45871;PMS5003;32333;55.844;-3.210;2022-09-03T13:36:02;3;3;
45871;PMS5003;32333;55.844;-3.210;2022-09-03T13:38:36;3;3;
45871;PMS5003;32333;55.844;-3.210;2022-09-03T13:41:10;1;1;
45871;PMS5003;32333;55.844;-3.210;2022-09-03T13:44:37;4;4;
45871;PMS5003;32333;55.844;-3.210;2022-09-03T13:47:11;1;1;
45871;PMS5003;32333;55.844;-3.210;2022-09-03T13:49:53;0;0;
45871;PMS5003;32333;55.844;-3.210;2022-09-03T13:52:30;4;4;
45871;PMS5003;32333;55.844;-3.210;2022-09-03T13:55:05;4;4;
45871;PMS5003;32333;55.844;-3.210;2022-09-03T13:57:38;3;3;
45871;PMS5003;32333;55.844;-3.210;2022-09-03T14:00:21;0;0;
45871;PMS5003;32333;55.844;-3.210;2022-09-03T14:02:51;3;3;
45871;PMS5003;32333;55.844;-3.210;2022-09-03T14:05:32;3;3;
45871;PMS5003;32333;55.844;-3.210;2022-09-03T14:08:10;1;1;
45871;PMS5003;32333;55.844;-3.210;2022-09-03T14:10:51;0;0;
45871;PMS5003;32333;55.844;-3.210;2022-09-03T14:14:37;1;1;
45871;PMS5003;32333;55.844;-3.210;2022-09-03T14:17:12;0;0;
45871;PMS5003;32333;55.844;-3.210;2022-09-03T14:19:46;3;3;
45871;PMS5003;32333;55.844;-3.210;2022-09-03T14:22:20;1;1;
45871;PMS5003;32333;55.844;-3.210;2022-09-03T14:24:52;3;3;
45871;PMS5003;32333;55.844;-3.210;2022-09-03T14:27:27;1;1;
45871;PMS5003;32333;55.844;-3.210;2022-09-03T14:29:57;1;1;
45871;PMS5003;32333;55.844;-3.210;2022-09-03T14:32:28;1;1;
45871;PMS5003;32333;55.844;-3.210;2022-09-03T14:35:08;3;3;
45871;PMS5003;32333;55.844;-3.210;2022-09-03T14:37:49;1;1;
45871;PMS5003;32333;55.844;-3.210;2022-09-03T14:40:29;0;0;
45871;PMS5003;32333;55.844;-3.210;2022-09-03T14:44:40;4;4;
45871;PMS5003;32333;55.844;-3.210;2022-09-03T14:47:23;0;0;
45871;PMS5003;32333;55.844;-3.210;2022-09-03T14:50:02;3;3;
45871;PMS5003;32333;55.844;-3.210;2022-09-03T14:52:44;1;1;
45871;PMS5003;32333;55.844;-3.210;2022-09-03T14:55:26;4;4;
45871;PMS5003;32333;55.844;-3.210;2022-09-03T14:58:11;3;3;
45871;PMS5003;32333;55.844;-3.210;2022-09-03T15:00:48;0;0;
45871;PMS5003;32333;55.844;-3.210;2022-09-03T15:03:32;1;1;
45871;PMS5003;32333;55.844;-3.210;2022-09-03T15:06:23;1;1;
45871;PMS5003;32333;55.844;-3.210;2022-09-03T15:09:09;1;1;
45871;PMS5003;32333;55.844;-3.210;2022-09-03T15:11:46;3;1;
45871;PMS5003;32333;55.844;-3.210;2022-09-03T15:14:38;1;1;
45871;PMS5003;32333;55.844;-3.210;2022-09-03T15:17:23;1;1;
45871;PMS5003;32333;55.844;-3.210;2022-09-03T15:20:07;0;0;
45871;PMS5003;32333;55.844;-3.210;2022-09-03T15:22:56;1;1;
45871;PMS5003;32333;55.844;-3.210;2022-09-03T15:25:40;1;1;
45871;PMS5003;32333;55.844;-3.210;2022-09-03T15:28:37;1;1;
45871;PMS5003;32333;55.844;-3.210;2022-09-03T15:31:19;1;1;
45871;PMS5003;32333;55.844;-3.210;2022-09-03T15:33:54;0;0;
45871;PMS5003;32333;55.844;-3.210;2022-09-03T15:36:27;1;1;
45871;PMS5003;32333;55.844;-3.210;2022-09-03T15:39:05;4;4;
45871;PMS5003;32333;55.844;-3.210;2022-09-03T15:41:39;3;3;
45871;PMS5003;32333;55.844;-3.210;2022-09-03T15:44:34;3;3;
45871;PMS5003;32333;55.844;-3.210;2022-09-03T15:47:07;1;1;
45871;PMS5003;32333;55.844;-3.210;2022-09-03T15:49:43;3;3;
45871;PMS5003;32333;55.844;-3.210;2022-09-03T15:52:24;3;3;
45871;PMS5003;32333;55.844;-3.210;2022-09-03T15:54:59;4;4;
45871;PMS5003;32333;55.844;-3.210;2022-09-03T15:57:35;3;3;
45871;PMS5003;32333;55.844;-3.210;2022-09-03T16:00:12;0;0;
45871;PMS5003;32333;55.844;-3.210;2022-09-03T16:02:44;1;1;
45871;PMS5003;32333;55.844;-3.210;2022-09-03T16:05:19;0;0;
45871;PMS5003;32333;55.844;-3.210;2022-09-03T16:08:08;1;1;
45871;PMS5003;32333;55.844;-3.210;2022-09-03T16:10:49;1;1;
45871;PMS5003;32333;55.844;-3.210;2022-09-03T16:14:36;9;7;
45871;PMS5003;32333;55.844;-3.210;2022-09-03T16:17:34;3;3;
45871;PMS5003;32333;55.844;-3.210;2022-09-03T16:20:33;0;0;
45871;PMS5003;32333;55.844;-3.210;2022-09-03T16:23:08;0;0;
45871;PMS5003;32333;55.844;-3.210;2022-09-03T16:25:44;4;3;
45871;PMS5003;32333;55.844;-3.210;2022-09-03T16:28:17;1;1;
45871;PMS5003;32333;55.844;-3.210;2022-09-03T16:30:54;4;4;
45871;PMS5003;32333;55.844;-3.210;2022-09-03T16:33:32;1;1;
45871;PMS5003;32333;55.844;-3.210;2022-09-03T16:36:15;0;0;
45871;PMS5003;32333;55.844;-3.210;2022-09-03T16:38:56;1;1;
45871;PMS5003;32333;55.844;-3.210;2022-09-03T16:41:30;0;0;
45871;PMS5003;32333;55.844;-3.210;2022-09-03T16:44:38;3;3;
45871;PMS5003;32333;55.844;-3.210;2022-09-03T16:47:19;1;1;
45871;PMS5003;32333;55.844;-3.210;2022-09-03T16:50:03;1;1;
45871;PMS5003;32333;55.844;-3.210;2022-09-03T16:52:40;3;3;
45871;PMS5003;32333;55.844;-3.210;2022-09-03T16:55:21;3;3;
45871;PMS5003;32333;55.844;-3.210;2022-09-03T16:57:55;1;1;
45871;PMS5003;32333;55.844;-3.210;2022-09-03T17:00:35;6;4;
45871;PMS5003;32333;55.844;-3.210;2022-09-03T17:03:17;3;1;
45871;PMS5003;32333;55.844;-3.210;2022-09-03T17:05:59;0;0;
45871;PMS5003;32333;55.844;-3.210;2022-09-03T17:08:41;4;4;
45871;PMS5003;32333;55.844;-3.210;2022-09-03T17:11:20;1;1;
45871;PMS5003;32333;55.844;-3.210;2022-09-03T17:14:40;1;1;
45871;PMS5003;32333;55.844;-3.210;2022-09-03T17:17:26;3;3;
45871;PMS5003;32333;55.844;-3.210;2022-09-03T17:20:08;1;1;
45871;PMS5003;32333;55.844;-3.210;2022-09-03T17:22:44;3;3;
45871;PMS5003;32333;55.844;-3.210;2022-09-03T17:25:24;6;3;
45871;PMS5003;32333;55.844;-3.210;2022-09-03T17:28:02;1;1;
45871;PMS5003;32333;55.844;-3.210;2022-09-03T17:30:42;1;1;
45871;PMS5003;32333;55.844;-3.210;2022-09-03T17:33:31;4;4;
45871;PMS5003;32333;55.844;-3.210;2022-09-03T17:36:13;0;0;
45871;PMS5003;32333;55.844;-3.210;2022-09-03T17:39:02;7;7;
45871;PMS5003;32333;55.844;-3.210;2022-09-03T17:41:43;3;3;